sensor_id;sensor_type;location;lat;lon;timestamp;temperature;humidity
43995;DHT22;51687;52.160;5.298;2023-07-30T00:30:24;21.40;58.40
43995;DHT22;51687;52.160;5.298;2023-07-30T00:32:51;21.10;58.70
43995;DHT22;51687;52.160;5.298;2023-07-30T00:35:18;21.10;58.80
43995;DHT22;51687;52.160;5.298;2023-07-30T00:37:45;21.10;58.90
43995;DHT22;51687;52.160;5.298;2023-07-30T00:40:12;21.00;58.90
43995;DHT22;51687;52.160;5.298;2023-07-30T00:42:39;21.00;58.90
43995;DHT22;51687;52.160;5.298;2023-07-30T00:45:06;21.10;59.10
43995;DHT22;51687;52.160;5.298;2023-07-30T10:41:55;21.00;59.90
43995;DHT22;51687;52.160;5.298;2023-07-30T10:44:31;21.30;59.50
43995;DHT22;51687;52.160;5.298;2023-07-30T10:46:59;21.30;59.10
43995;DHT22;51687;52.160;5.298;2023-07-30T10:49:27;21.30;58.70
43995;DHT22;51687;52.160;5.298;2023-07-30T10:51:56;21.30;59.60
43995;DHT22;51687;52.160;5.298;2023-07-30T10:54:26;21.30;59.80
43995;DHT22;51687;52.160;5.298;2023-07-30T10:56:54;21.40;58.60
43995;DHT22;51687;52.160;5.298;2023-07-30T10:59:20;21.40;58.80
43995;DHT22;51687;52.160;5.298;2023-07-30T11:01:47;21.40;58.20
43995;DHT22;51687;52.160;5.298;2023-07-30T11:04:17;21.40;57.20
43995;DHT22;51687;52.160;5.298;2023-07-30T11:06:48;21.40;56.40
43995;DHT22;51687;52.160;5.298;2023-07-30T11:09:20;21.40;56.10
43995;DHT22;51687;52.160;5.298;2023-07-30T11:11:47;21.40;57.20
43995;DHT22;51687;52.160;5.298;2023-07-30T12:21:43;21.40;57.10
43995;DHT22;51687;52.160;5.298;2023-07-30T12:24:10;21.80;57.70
43995;DHT22;51687;52.160;5.298;2023-07-30T12:26:36;21.80;55.80
43995;DHT22;51687;52.160;5.298;2023-07-30T12:29:03;21.90;54.80
43995;DHT22;51687;52.160;5.298;2023-07-30T12:31:30;21.90;55.00
43995;DHT22;51687;52.160;5.298;2023-07-30T12:33:57;21.90;54.90
43995;DHT22;51687;52.160;5.298;2023-07-30T12:36:24;21.90;54.10
43995;DHT22;51687;52.160;5.298;2023-07-30T12:38:51;21.90;55.20
43995;DHT22;51687;52.160;5.298;2023-07-30T12:41:20;21.90;55.10
43995;DHT22;51687;52.160;5.298;2023-07-30T12:44:00;21.90;55.30
43995;DHT22;51687;52.160;5.298;2023-07-30T12:46:26;22.00;54.90
43995;DHT22;51687;52.160;5.298;2023-07-30T12:48:56;22.00;55.00
43995;DHT22;51687;52.160;5.298;2023-07-30T12:51:23;22.00;55.50
43995;DHT22;51687;52.160;5.298;2023-07-30T12:53:50;22.00;54.50
43995;DHT22;51687;52.160;5.298;2023-07-30T12:56:17;22.10;54.40
43995;DHT22;51687;52.160;5.298;2023-07-30T12:58:44;22.10;54.00
43995;DHT22;51687;52.160;5.298;2023-07-30T13:01:10;22.10;54.20
43995;DHT22;51687;52.160;5.298;2023-07-30T13:03:37;22.10;52.70
43995;DHT22;51687;52.160;5.298;2023-07-30T13:06:05;22.20;51.40
43995;DHT22;51687;52.160;5.298;2023-07-30T13:08:32;22.20;51.40
43995;DHT22;51687;52.160;5.298;2023-07-30T13:10:59;22.10;51.70
43995;DHT22;51687;52.160;5.298;2023-07-30T13:13:25;22.10;51.30
43995;DHT22;51687;52.160;5.298;2023-07-30T13:15:52;22.10;52.20
43995;DHT22;51687;52.160;5.298;2023-07-30T13:18:24;22.20;52.10
43995;DHT22;51687;52.160;5.298;2023-07-30T13:20:51;22.20;51.60
43995;DHT22;51687;52.160;5.298;2023-07-30T13:23:18;22.20;51.90
43995;DHT22;51687;52.160;5.298;2023-07-30T13:25:44;22.20;51.00
43995;DHT22;51687;52.160;5.298;2023-07-30T13:28:11;22.20;50.90
43995;DHT22;51687;52.160;5.298;2023-07-30T13:30:38;22.20;49.40
43995;DHT22;51687;52.160;5.298;2023-07-30T13:33:05;22.20;49.40
43995;DHT22;51687;52.160;5.298;2023-07-30T13:35:32;22.10;50.20
43995;DHT22;51687;52.160;5.298;2023-07-30T13:37:58;22.20;50.00
43995;DHT22;51687;52.160;5.298;2023-07-30T13:40:26;22.20;50.80
43995;DHT22;51687;52.160;5.298;2023-07-30T13:42:52;22.20;48.90
43995;DHT22;51687;52.160;5.298;2023-07-30T13:45:19;22.20;49.70
43995;DHT22;51687;52.160;5.298;2023-07-30T13:47:46;22.20;49.90
43995;DHT22;51687;52.160;5.298;2023-07-30T13:50:12;22.30;51.60
43995;DHT22;51687;52.160;5.298;2023-07-30T13:52:39;22.30;50.80
43995;DHT22;51687;52.160;5.298;2023-07-30T13:55:06;22.30;51.00
43995;DHT22;51687;52.160;5.298;2023-07-30T13:57:33;22.30;50.50
43995;DHT22;51687;52.160;5.298;2023-07-30T14:00:02;22.30;50.30
43995;DHT22;51687;52.160;5.298;2023-07-30T14:02:29;22.30;49.80
43995;DHT22;51687;52.160;5.298;2023-07-30T14:04:59;22.30;49.40
43995;DHT22;51687;52.160;5.298;2023-07-30T14:07:25;22.30;50.20
43995;DHT22;51687;52.160;5.298;2023-07-30T14:09:52;22.30;49.90
43995;DHT22;51687;52.160;5.298;2023-07-30T14:12:19;22.30;50.20
43995;DHT22;51687;52.160;5.298;2023-07-30T14:14:45;22.40;49.70
43995;DHT22;51687;52.160;5.298;2023-07-30T14:17:12;22.30;50.80
43995;DHT22;51687;52.160;5.298;2023-07-30T14:19:42;22.30;51.20
43995;DHT22;51687;52.160;5.298;2023-07-30T14:22:09;22.40;52.30
43995;DHT22;51687;52.160;5.298;2023-07-30T14:24:36;22.40;52.00
43995;DHT22;51687;52.160;5.298;2023-07-30T14:27:04;22.40;52.00
43995;DHT22;51687;52.160;5.298;2023-07-30T14:29:31;22.40;51.20
43995;DHT22;51687;52.160;5.298;2023-07-30T14:31:58;22.40;51.30
43995;DHT22;51687;52.160;5.298;2023-07-30T14:34:25;22.40;51.90
43995;DHT22;51687;52.160;5.298;2023-07-30T14:36:51;22.40;51.50
43995;DHT22;51687;52.160;5.298;2023-07-30T14:39:18;22.50;52.10
43995;DHT22;51687;52.160;5.298;2023-07-30T14:41:45;22.50;52.20
43995;DHT22;51687;52.160;5.298;2023-07-30T14:44:12;22.50;51.90
43995;DHT22;51687;52.160;5.298;2023-07-30T14:46:39;22.40;52.00
43995;DHT22;51687;52.160;5.298;2023-07-30T14:49:06;22.40;51.00
43995;DHT22;51687;52.160;5.298;2023-07-30T14:51:33;22.40;51.00
43995;DHT22;51687;52.160;5.298;2023-07-30T14:53:59;22.40;52.00
43995;DHT22;51687;52.160;5.298;2023-07-30T14:56:26;22.40;51.80
43995;DHT22;51687;52.160;5.298;2023-07-30T14:58:53;22.40;51.60
43995;DHT22;51687;52.160;5.298;2023-07-30T15:01:22;22.40;50.60
43995;DHT22;51687;52.160;5.298;2023-07-30T15:03:49;22.40;50.10
43995;DHT22;51687;52.160;5.298;2023-07-30T15:06:15;22.40;50.70
43995;DHT22;51687;52.160;5.298;2023-07-30T15:08:43;22.40;50.80
43995;DHT22;51687;52.160;5.298;2023-07-30T15:11:10;22.40;51.70
43995;DHT22;51687;52.160;5.298;2023-07-30T15:13:38;22.40;51.90
43995;DHT22;51687;52.160;5.298;2023-07-30T15:16:04;22.50;52.00
43995;DHT22;51687;52.160;5.298;2023-07-30T15:18:31;22.50;52.10
43995;DHT22;51687;52.160;5.298;2023-07-30T15:20:58;22.50;51.50
43995;DHT22;51687;52.160;5.298;2023-07-30T15:23:25;22.50;51.00
43995;DHT22;51687;52.160;5.298;2023-07-30T15:25:52;22.40;49.40
43995;DHT22;51687;52.160;5.298;2023-07-30T15:28:19;22.40;49.50
43995;DHT22;51687;52.160;5.298;2023-07-30T15:30:46;22.40;50.30
43995;DHT22;51687;52.160;5.298;2023-07-30T15:33:13;22.40;49.70
43995;DHT22;51687;52.160;5.298;2023-07-30T15:35:39;22.40;50.20
43995;DHT22;51687;52.160;5.298;2023-07-30T15:38:07;22.40;50.90
43995;DHT22;51687;52.160;5.298;2023-07-30T15:40:34;22.40;50.60
43995;DHT22;51687;52.160;5.298;2023-07-30T15:43:02;22.40;51.40
43995;DHT22;51687;52.160;5.298;2023-07-30T15:45:30;22.40;50.60
43995;DHT22;51687;52.160;5.298;2023-07-30T15:47:57;22.40;51.90
43995;DHT22;51687;52.160;5.298;2023-07-30T22:24:25;22.40;51.40
43995;DHT22;51687;52.160;5.298;2023-07-30T22:26:51;20.70;68.20
43995;DHT22;51687;52.160;5.298;2023-07-30T22:29:18;20.60;68.20
43995;DHT22;51687;52.160;5.298;2023-07-30T22:31:45;20.50;68.10
43995;DHT22;51687;52.160;5.298;2023-07-30T22:34:12;20.60;68.70
43995;DHT22;51687;52.160;5.298;2023-07-30T22:36:38;20.60;68.70
43995;DHT22;51687;52.160;5.298;2023-07-30T22:39:06;20.60;68.60
43995;DHT22;51687;52.160;5.298;2023-07-30T22:48:54;20.50;68.40
43995;DHT22;51687;52.160;5.298;2023-07-30T22:51:21;20.40;68.90
43995;DHT22;51687;52.160;5.298;2023-07-30T22:53:47;20.40;69.00
43995;DHT22;51687;52.160;5.298;2023-07-30T22:56:14;20.40;69.20
43995;DHT22;51687;52.160;5.298;2023-07-30T22:58:41;20.40;69.20
43995;DHT22;51687;52.160;5.298;2023-07-30T23:01:08;20.30;69.40
43995;DHT22;51687;52.160;5.298;2023-07-30T23:03:34;20.30;69.60
43995;DHT22;51687;52.160;5.298;2023-07-30T23:06:01;20.30;69.40
43995;DHT22;51687;52.160;5.298;2023-07-30T23:08:28;20.30;69.40
43995;DHT22;51687;52.160;5.298;2023-07-30T23:10:55;20.30;69.60
43995;DHT22;51687;52.160;5.298;2023-07-30T23:13:22;20.30;69.60
43995;DHT22;51687;52.160;5.298;2023-07-30T23:15:48;20.30;69.60
43995;DHT22;51687;52.160;5.298;2023-07-30T23:18:15;20.30;69.90
43995;DHT22;51687;52.160;5.298;2023-07-30T23:20:42;20.30;70.10
43995;DHT22;51687;52.160;5.298;2023-07-30T23:23:09;20.30;70.00
43995;DHT22;51687;52.160;5.298;2023-07-30T23:25:35;20.30;70.10
43995;DHT22;51687;52.160;5.298;2023-07-30T23:28:02;20.30;70.30
43995;DHT22;51687;52.160;5.298;2023-07-30T23:30:29;20.30;70.40
43995;DHT22;51687;52.160;5.298;2023-07-30T23:32:56;20.30;70.40
43995;DHT22;51687;52.160;5.298;2023-07-30T23:35:23;20.20;70.30
43995;DHT22;51687;52.160;5.298;2023-07-30T23:37:49;20.20;70.30
43995;DHT22;51687;52.160;5.298;2023-07-30T23:40:16;20.20;70.40
43995;DHT22;51687;52.160;5.298;2023-07-30T23:42:43;20.20;70.70
43995;DHT22;51687;52.160;5.298;2023-07-30T23:45:10;20.20;71.00
43995;DHT22;51687;52.160;5.298;2023-07-30T23:47:36;20.20;71.20
43995;DHT22;51687;52.160;5.298;2023-07-30T23:50:03;20.20;71.30
43995;DHT22;51687;52.160;5.298;2023-07-30T23:52:30;20.20;71.40
43995;DHT22;51687;52.160;5.298;2023-07-30T23:54:58;20.20;71.40
43995;DHT22;51687;52.160;5.298;2023-07-30T23:57:24;20.20;71.70
43995;DHT22;51687;52.160;5.298;2023-07-30T23:59:51;20.20;71.70
